Edmonton / Villeneuve (Rose Field)

CRF3 · 艾伯塔, 加拿大

罗盘
风向 的 风向 350°
风: 9 kt, 3 beaufort

添加一条跑道以查看侧风和逆风信息。

添置 跑道
0 1.000 2.000 3.000 4.000 5.000
没有云
METAR CZVL 060300Z AUTO 35009KT 9SM CLR M24/M27 A3002 RMK SLP237

METAR Edmonton / Villeneuve (Rose Field) - CRF3

Edmonton / Villeneuve (Rose Field)是,加拿大中的小机场。 视场标高为2.190 ft。 该领域的国际民航组织标志是CRF3.

这份报告是针对2022年12月5日 20:00, 当地时间在Edmonton / Villeneuve Airport进行的。

机场观察

风向为350°,速度为9 kt。

可见度为9 mi。

有没有云。 没有观察到天花板。

温度为-24 °C,阵风为-38 °C。 露点为-27 °C,相对湿度为76%。 海平面上的气压为30,02 inHg (QNH)。

白天

今天,太阳从08:36升起,在16:16降落。 这适用于Edmonton / Villeneuve (Rose Field),世界夏令时可能有所不同。 当地时间与世界标准时间之间的时差为-7 小时。 当前,没有夏令时有效。

公司介绍

我们没有关于这个机场的公司信息。

体会

到Vliegles.nl去找飞行课程,跳伞和其他飞行体验。 浏览页面,了解Edmonton / Villeneuve (Rose Field)附近所有可用的活动。 你也可以使用搜索功能来寻找你所在地附近的特定飞行课程、跳伞或其他飞行体验。

乌云

- CLR 没有云

温度 & 天气

温度 -24 °C
露点 -27 °C
相对湿度 76%
风寒 -38 °C
Kp-index 0 (0-9)

评论

SLP237海平面压力为30,23 inHg (30,23 inHg)

白天

日出
08:36 (12:17)
中午
12:26
日落
16:16

小工具

你想在你的网站上有一个关于Edmonton / Villeneuve (Rose Field)的当前航空天气(METAR)的小部件吗?

显示HTML代码

我们和第三方通过cookies跟踪您在我们网站上的互联网行为。如果你继续,我们认为你同意我们的饼干政策